createdAt,value
2017-06-18T00:00:09.706Z,927.4
2017-06-18T00:00:28.000Z,927.38
2017-06-18T00:00:47.333Z,927.38
2017-06-18T00:01:06.666Z,927.4
2017-06-18T00:01:25.470Z,927.36
2017-06-18T00:01:44.758Z,927.38
2017-06-18T00:02:04.043Z,927.39
2017-06-18T00:02:23.356Z,927.39
2017-06-18T00:02:42.648Z,927.44
2017-06-18T00:03:01.439Z,927.42
2017-06-18T00:03:20.729Z,927.41
2017-06-18T00:03:39.524Z,927.48
2017-06-18T00:03:58.807Z,927.51
2017-06-18T00:04:18.121Z,927.45
2017-06-18T00:04:37.406Z,927.43
2017-06-18T00:04:55.670Z,927.46
2017-06-18T00:05:14.973Z,927.43
2017-06-18T00:05:34.265Z,927.43
2017-06-18T00:05:53.036Z,927.49
2017-06-18T00:06:12.355Z,927.45
2017-06-18T00:06:31.663Z,927.41
2017-06-18T00:06:50.971Z,927.43
2017-06-18T00:07:10.282Z,927.46
2017-06-18T00:07:29.115Z,927.45
2017-06-18T00:07:48.395Z,927.43
2017-06-18T00:08:07.698Z,927.45
2017-06-18T00:08:27.002Z,927.45
2017-06-18T00:08:46.335Z,927.45
2017-06-18T00:09:05.123Z,927.42
2017-06-18T00:09:24.445Z,927.41
2017-06-18T00:09:43.745Z,927.42
2017-06-18T00:10:01.524Z,927.42
2017-06-18T00:10:20.863Z,927.42
2017-06-18T00:10:39.674Z,927.4
2017-06-18T00:10:58.953Z,927.45
2017-06-18T00:11:18.257Z,927.4
2017-06-18T00:11:37.546Z,927.46
2017-06-18T00:11:56.851Z,927.42
2017-06-18T00:12:15.126Z,927.43
2017-06-18T00:12:33.916Z,927.41
2017-06-18T00:12:53.215Z,927.45
2017-06-18T00:13:12.545Z,927.43
2017-06-18T00:13:30.813Z,927.43
2017-06-18T00:13:50.117Z,927.48
2017-06-18T00:14:09.444Z,927.43
2017-06-18T00:14:28.223Z,927.47
2017-06-18T00:14:46.996Z,927.48
2017-06-18T00:15:05.780Z,927.44
2017-06-18T00:15:24.582Z,927.39
2017-06-18T00:15:43.372Z,927.43
2017-06-18T00:16:01.646Z,927.43
2017-06-18T00:16:19.923Z,927.43
2017-06-18T00:16:39.223Z,927.42
2017-06-18T00:16:58.534Z,927.38
2017-06-18T00:17:17.851Z,927.41
2017-06-18T00:17:37.127Z,927.42
2017-06-18T00:17:55.909Z,927.42
2017-06-18T00:18:15.232Z,927.42
2017-06-18T00:18:34.016Z,927.44
2017-06-18T00:18:53.338Z,927.45
2017-06-18T00:19:12.654Z,927.44
2017-06-18T00:19:31.971Z,927.43
2017-06-18T00:19:51.281Z,927.45
2017-06-18T00:20:09.549Z,927.41
2017-06-18T00:20:28.855Z,927.43
2017-06-18T00:20:48.148Z,927.4
2017-06-18T00:21:06.958Z,927.43
2017-06-18T00:21:26.348Z,927.42
2017-06-18T00:21:45.725Z,927.43
2017-06-18T00:22:04.011Z,927.44
2017-06-18T00:22:23.373Z,927.45
2017-06-18T00:22:42.191Z,927.41
2017-06-18T00:23:01.516Z,927.42
2017-06-18T00:23:20.805Z,927.4
2017-06-18T00:23:40.121Z,927.42
2017-06-18T00:23:59.446Z,927.42
2017-06-18T00:24:17.720Z,927.4
2017-06-18T00:24:37.023Z,927.42
2017-06-18T00:24:56.363Z,927.44
2017-06-18T00:25:15.653Z,927.43
2017-06-18T00:25:34.979Z,927.43
2017-06-18T00:25:53.871Z,927.45
2017-06-18T00:26:12.744Z,927.42
2017-06-18T00:26:32.051Z,927.41
2017-06-18T00:26:51.360Z,927.45
2017-06-18T00:27:10.136Z,927.42
2017-06-18T00:27:29.423Z,927.4
2017-06-18T00:27:48.741Z,927.42
2017-06-18T00:28:08.085Z,927.48
2017-06-18T00:28:27.505Z,927.48
2017-06-18T00:28:46.336Z,927.43
2017-06-18T00:29:05.632Z,927.44
2017-06-18T00:29:24.434Z,927.46
2017-06-18T00:29:43.746Z,927.42
2017-06-18T00:30:02.008Z,927.4
2017-06-18T00:30:21.303Z,927.45
2017-06-18T00:30:39.580Z,927.47
2017-06-18T00:30:58.910Z,927.51
2017-06-18T00:31:18.227Z,927.5
2017-06-18T00:31:37.017Z,927.47
2017-06-18T00:31:56.317Z,927.47
2017-06-18T00:32:15.609Z,927.5
2017-06-18T00:32:33.895Z,927.46
2017-06-18T00:32:53.187Z,927.49
2017-06-18T00:33:12.521Z,927.45
2017-06-18T00:33:30.792Z,927.44
2017-06-18T00:33:50.088Z,927.44
2017-06-18T00:34:09.386Z,927.45
2017-06-18T00:34:28.711Z,927.42
2017-06-18T00:34:47.498Z,927.4
2017-06-18T00:35:06.281Z,927.39
2017-06-18T00:35:25.068Z,927.42
2017-06-18T00:35:44.355Z,927.39
2017-06-18T00:36:02.655Z,927.39
2017-06-18T00:36:21.929Z,927.39
2017-06-18T00:36:41.224Z,927.37
2017-06-18T00:37:00.561Z,927.38
2017-06-18T00:37:19.335Z,927.37
2017-06-18T00:37:38.633Z,927.34
2017-06-18T00:37:57.949Z,927.36
2017-06-18T00:38:17.240Z,927.37
2017-06-18T00:38:36.568Z,927.34
2017-06-18T00:38:55.886Z,927.33
2017-06-18T00:39:14.154Z,927.35
2017-06-18T00:39:32.937Z,927.34
2017-06-18T00:39:51.758Z,927.35
2017-06-18T00:40:10.529Z,927.33
2017-06-18T00:40:29.848Z,927.32
2017-06-18T00:40:49.149Z,927.36
2017-06-18T00:41:07.924Z,927.35
2017-06-18T00:41:26.744Z,927.35
2017-06-18T00:41:45.524Z,927.34
2017-06-18T00:42:04.327Z,927.34
2017-06-18T00:42:23.125Z,927.36
2017-06-18T00:42:42.437Z,927.35
2017-06-18T00:43:01.743Z,927.34
2017-06-18T00:43:21.048Z,927.36
2017-06-18T00:43:39.868Z,927.35
2017-06-18T00:43:58.637Z,927.36
2017-06-18T00:44:17.439Z,927.35
2017-06-18T00:44:36.246Z,927.4
2017-06-18T00:44:55.548Z,927.4
2017-06-18T00:45:14.356Z,927.41
2017-06-18T00:45:33.672Z,927.4
2017-06-18T00:45:52.451Z,927.41
2017-06-18T00:46:11.256Z,927.41
2017-06-18T00:46:30.562Z,927.38
2017-06-18T00:46:49.882Z,927.39
2017-06-18T00:47:09.176Z,927.38
2017-06-18T00:47:27.957Z,927.35
2017-06-18T00:47:47.263Z,927.37
2017-06-18T00:48:06.559Z,927.36
2017-06-18T00:48:24.854Z,927.37
2017-06-18T00:48:43.636Z,927.36
2017-06-18T00:49:02.945Z,927.35
2017-06-18T00:49:22.248Z,927.34
2017-06-18T00:49:41.532Z,927.33
2017-06-18T00:49:59.825Z,927.35
2017-06-18T00:50:19.124Z,927.35
2017-06-18T00:50:37.913Z,927.39
2017-06-18T00:50:55.688Z,927.35
2017-06-18T00:51:14.967Z,927.38
2017-06-18T00:51:34.286Z,927.34
2017-06-18T00:51:53.588Z,927.35
2017-06-18T00:52:12.895Z,927.34
2017-06-18T00:52:31.683Z,927.32
2017-06-18T00:52:50.456Z,927.34
2017-06-18T00:53:09.748Z,927.37
2017-06-18T00:53:29.025Z,927.35
2017-06-18T00:53:48.341Z,927.33
2017-06-18T00:54:07.663Z,927.32
2017-06-18T00:54:26.469Z,927.31
2017-06-18T00:54:45.756Z,927.31
2017-06-18T00:55:04.548Z,927.35
2017-06-18T00:55:23.854Z,927.3
2017-06-18T00:55:43.194Z,927.34
2017-06-18T00:56:02.511Z,927.31
2017-06-18T00:56:21.288Z,927.31
2017-06-18T00:56:39.554Z,927.32
2017-06-18T00:56:58.888Z,927.32
2017-06-18T00:57:17.665Z,927.33
2017-06-18T00:57:36.438Z,927.32
2017-06-18T00:57:55.229Z,927.27
2017-06-18T00:58:14.519Z,927.32
2017-06-18T00:58:33.820Z,927.3
2017-06-18T00:58:52.624Z,927.29
2017-06-18T00:59:11.979Z,927.31
2017-06-18T00:59:30.794Z,927.29
2017-06-18T00:59:49.575Z,927.31
2017-06-18T01:00:07.874Z,927.3
2017-06-18T01:00:27.152Z,927.29
2017-06-18T01:00:46.454Z,927.27
2017-06-18T01:01:05.235Z,927.27
2017-06-18T01:01:24.025Z,927.26
2017-06-18T01:01:42.869Z,927.29
2017-06-18T01:02:01.194Z,927.27
2017-06-18T01:02:19.443Z,927.27
2017-06-18T01:02:38.740Z,927.31
2017-06-18T01:02:56.531Z,927.27
2017-06-18T01:03:15.853Z,927.29
2017-06-18T01:03:34.647Z,927.27
2017-06-18T01:03:53.991Z,927.28
2017-06-18T01:04:13.299Z,927.32
2017-06-18T01:04:32.091Z,927.29
2017-06-18T01:04:51.438Z,927.3
2017-06-18T01:05:10.232Z,927.29
2017-06-18T01:05:28.503Z,927.28
2017-06-18T01:05:47.809Z,927.27
2017-06-18T01:06:06.618Z,927.28
2017-06-18T01:06:25.408Z,927.29
2017-06-18T01:06:44.172Z,927.3
2017-06-18T01:07:02.444Z,927.32
2017-06-18T01:07:21.754Z,927.3
2017-06-18T01:07:41.062Z,927.29
2017-06-18T01:08:00.337Z,927.29
2017-06-18T01:08:19.111Z,927.27
2017-06-18T01:08:38.393Z,927.3
2017-06-18T01:08:56.670Z,927.26
2017-06-18T01:09:15.443Z,927.31
2017-06-18T01:09:34.246Z,927.29
2017-06-18T01:09:53.551Z,927.25
2017-06-18T01:10:12.861Z,927.28
2017-06-18T01:10:32.167Z,927.26
2017-06-18T01:10:50.945Z,927.27
2017-06-18T01:11:10.258Z,927.3
2017-06-18T01:11:29.543Z,927.3
2017-06-18T01:11:48.829Z,927.27
2017-06-18T01:12:08.122Z,927.3
2017-06-18T01:12:27.437Z,927.3
2017-06-18T01:12:46.236Z,927.29
2017-06-18T01:13:04.502Z,927.29
2017-06-18T01:13:23.833Z,927.26
2017-06-18T01:13:42.111Z,927.24
2017-06-18T01:14:01.439Z,927.25
2017-06-18T01:14:20.236Z,927.25
2017-06-18T01:14:39.555Z,927.25
2017-06-18T01:14:58.331Z,927.29
2017-06-18T01:15:17.625Z,927.28
2017-06-18T01:15:36.923Z,927.23
2017-06-18T01:15:56.246Z,927.23
2017-06-18T01:16:15.533Z,927.28
2017-06-18T01:16:34.839Z,927.28
2017-06-18T01:16:54.167Z,927.28
2017-06-18T01:17:12.973Z,927.25
2017-06-18T01:17:31.752Z,927.24
2017-06-18T01:17:50.526Z,927.24
2017-06-18T01:18:09.821Z,927.22
2017-06-18T01:18:28.596Z,927.27
2017-06-18T01:18:47.924Z,927.21
2017-06-18T01:19:07.242Z,927.23
2017-06-18T01:19:26.553Z,927.2
2017-06-18T01:19:45.365Z,927.24
2017-06-18T01:20:04.168Z,927.21
2017-06-18T01:20:23.518Z,927.26
2017-06-18T01:20:42.844Z,927.24
2017-06-18T01:21:02.136Z,927.21
2017-06-18T01:21:21.441Z,927.21
2017-06-18T01:21:40.246Z,927.24
2017-06-18T01:21:59.551Z,927.27
2017-06-18T01:22:18.861Z,927.24
2017-06-18T01:22:37.156Z,927.23
2017-06-18T01:22:56.464Z,927.23
2017-06-18T01:23:15.782Z,927.22
2017-06-18T01:23:34.602Z,927.23
2017-06-18T01:23:53.907Z,927.23
2017-06-18T01:24:13.260Z,927.21
2017-06-18T01:24:32.575Z,927.2
2017-06-18T01:24:51.903Z,927.19
2017-06-18T01:25:11.222Z,927.2
2017-06-18T01:25:30.525Z,927.22
2017-06-18T01:25:49.850Z,927.2
2017-06-18T01:26:09.177Z,927.19
2017-06-18T01:26:27.973Z,927.18
2017-06-18T01:26:46.846Z,927.16
2017-06-18T01:27:05.658Z,927.16
2017-06-18T01:27:24.954Z,927.18
2017-06-18T01:27:43.737Z,927.19
2017-06-18T01:28:02.537Z,927.2
2017-06-18T01:28:21.843Z,927.14
2017-06-18T01:28:41.145Z,927.17
2017-06-18T01:29:00.433Z,927.22
2017-06-18T01:29:19.218Z,927.14
2017-06-18T01:29:38.540Z,927.14
2017-06-18T01:29:57.322Z,927.18
2017-06-18T01:30:16.101Z,927.14
2017-06-18T01:30:34.900Z,927.17
2017-06-18T01:30:53.741Z,927.15
2017-06-18T01:31:13.757Z,927.16
2017-06-18T01:31:32.067Z,927.17
2017-06-18T01:31:52.113Z,927.16
2017-06-18T01:32:12.119Z,927.18
2017-06-18T01:32:31.572Z,927.13
2017-06-18T01:32:51.609Z,927.2
2017-06-18T01:33:11.608Z,927.2
2017-06-18T01:33:31.600Z,927.23
2017-06-18T01:33:51.042Z,927.21
2017-06-18T01:34:10.554Z,927.21
2017-06-18T01:34:30.606Z,927.18
2017-06-18T01:34:50.632Z,927.18
2017-06-18T01:35:10.089Z,927.17
2017-06-18T01:35:30.107Z,927.15
2017-06-18T01:35:50.134Z,927.17
2017-06-18T01:36:10.158Z,927.16
2017-06-18T01:36:30.198Z,927.21
2017-06-18T01:36:50.235Z,927.16
2017-06-18T01:37:10.255Z,927.18
2017-06-18T01:37:30.269Z,927.18
2017-06-18T01:37:50.280Z,927.2
2017-06-18T01:38:10.285Z,927.19
2017-06-18T01:38:30.293Z,927.21
2017-06-18T01:38:49.755Z,927.19
2017-06-18T01:39:09.760Z,927.19
2017-06-18T01:39:29.212Z,927.21
2017-06-18T01:39:49.211Z,927.16
2017-06-18T01:40:08.664Z,927.15
2017-06-18T01:40:28.136Z,927.17
2017-06-18T01:40:48.142Z,927.19
2017-06-18T01:41:07.588Z,927.18
2017-06-18T01:41:27.602Z,927.17
2017-06-18T01:41:47.606Z,927.18
2017-06-18T01:42:07.612Z,927.14
2017-06-18T01:42:27.616Z,927.17
2017-06-18T01:42:47.632Z,927.13
2017-06-18T01:43:07.626Z,927.18
2017-06-18T01:43:27.645Z,927.19
2017-06-18T01:43:47.665Z,927.13
2017-06-18T01:44:07.128Z,927.12
2017-06-18T01:44:26.562Z,927.17
2017-06-18T01:44:46.579Z,927.17
2017-06-18T01:45:06.618Z,927.2
2017-06-18T01:45:26.634Z,927.17
2017-06-18T01:45:46.650Z,927.18
2017-06-18T01:46:06.082Z,927.19
2017-06-18T01:46:25.536Z,927.23
2017-06-18T01:46:45.000Z,927.21
2017-06-18T01:47:04.461Z,927.26
2017-06-18T01:47:24.484Z,927.22
2017-06-18T01:47:44.520Z,927.2
2017-06-18T01:48:04.563Z,927.22
2017-06-18T01:48:24.579Z,927.23
2017-06-18T01:48:44.021Z,927.21
2017-06-18T01:49:04.037Z,927.19
2017-06-18T01:49:24.054Z,927.21
2017-06-18T01:49:44.088Z,927.23
2017-06-18T01:50:03.508Z,927.22
2017-06-18T01:50:23.515Z,927.22
2017-06-18T01:50:43.553Z,927.21
2017-06-18T01:51:03.585Z,927.21
2017-06-18T01:51:23.601Z,927.21
2017-06-18T01:51:43.618Z,927.2
2017-06-18T01:52:03.657Z,927.23
2017-06-18T01:52:23.656Z,927.2
2017-06-18T01:52:43.697Z,927.2
2017-06-18T01:53:02.584Z,927.19
2017-06-18T01:53:22.613Z,927.22
2017-06-18T01:53:42.069Z,927.21
2017-06-18T01:54:01.577Z,927.2
2017-06-18T01:54:21.109Z,927.2
2017-06-18T01:54:41.120Z,927.19
2017-06-18T01:55:00.001Z,927.23
2017-06-18T01:55:19.467Z,927.19
2017-06-18T01:55:39.478Z,927.22
2017-06-18T01:55:59.517Z,927.2
2017-06-18T01:56:19.574Z,927.18
2017-06-18T01:56:39.588Z,927.22
2017-06-18T01:56:59.606Z,927.21
2017-06-18T01:57:19.630Z,927.24
2017-06-18T01:57:39.640Z,927.21
2017-06-18T01:57:59.717Z,927.22
2017-06-18T01:58:19.821Z,927.2
2017-06-18T01:58:39.860Z,927.25
2017-06-18T01:58:59.328Z,927.22
2017-06-18T01:59:19.309Z,927.24
2017-06-18T01:59:39.329Z,927.23
2017-06-18T01:59:59.396Z,927.22
2017-06-18T02:00:18.839Z,927.22
2017-06-18T02:00:38.860Z,927.27
2017-06-18T02:00:58.853Z,927.25
2017-06-18T02:01:18.847Z,927.28
2017-06-18T02:01:38.863Z,927.23
2017-06-18T02:01:58.872Z,927.28
2017-06-18T02:02:18.899Z,927.22
2017-06-18T02:02:38.921Z,927.28
2017-06-18T02:03:13.001Z,927.26
2017-06-18T02:03:33.008Z,927.26
2017-06-18T02:03:53.007Z,927.21
2017-06-18T02:04:13.022Z,927.28
2017-06-18T02:04:33.058Z,927.28
2017-06-18T02:04:53.043Z,927.28
2017-06-18T02:05:12.491Z,927.29
2017-06-18T02:05:32.513Z,927.28
2017-06-18T02:05:52.530Z,927.26
2017-06-18T02:06:12.538Z,927.24
2017-06-18T02:06:32.566Z,927.25
2017-06-18T02:06:52.712Z,927.26
2017-06-18T02:07:12.173Z,927.24
2017-06-18T02:07:32.199Z,927.23
2017-06-18T02:07:52.221Z,927.21
2017-06-18T02:08:12.249Z,927.22
2017-06-18T02:08:31.691Z,927.23
2017-06-18T02:08:51.719Z,927.28
2017-06-18T02:09:11.749Z,927.2
2017-06-18T02:09:31.187Z,927.27
2017-06-18T02:09:51.187Z,927.24
2017-06-18T02:10:10.649Z,927.25
2017-06-18T02:10:30.689Z,927.26
2017-06-18T02:10:50.706Z,927.24
2017-06-18T02:11:10.194Z,927.24
2017-06-18T02:11:29.692Z,927.26
2017-06-18T02:11:49.733Z,927.24
2017-06-18T02:12:09.766Z,927.27
2017-06-18T02:12:29.776Z,927.28
2017-06-18T02:12:49.226Z,927.26
2017-06-18T02:13:09.229Z,927.25
2017-06-18T02:13:28.686Z,927.25
2017-06-18T02:13:48.734Z,927.26
2017-06-18T02:14:08.736Z,927.26
2017-06-18T02:14:28.752Z,927.27
2017-06-18T02:14:48.770Z,927.22
2017-06-18T02:15:08.773Z,927.28
2017-06-18T02:15:28.212Z,927.23
2017-06-18T02:15:47.650Z,927.27
2017-06-18T02:16:07.665Z,927.3
2017-06-18T02:16:27.140Z,927.26
2017-06-18T02:16:47.159Z,927.27
2017-06-18T02:17:07.176Z,927.25
2017-06-18T02:17:27.202Z,927.28
2017-06-18T02:17:47.202Z,927.24
2017-06-18T02:18:07.206Z,927.31
2017-06-18T02:18:27.234Z,927.27
2017-06-18T02:18:47.249Z,927.3
2017-06-18T02:19:07.271Z,927.29
2017-06-18T02:19:27.272Z,927.3
2017-06-18T02:19:47.276Z,927.27
2017-06-18T02:20:07.319Z,927.27
2017-06-18T02:20:27.559Z,927.3
2017-06-18T02:20:47.574Z,927.31
2017-06-18T02:21:07.582Z,927.3
2017-06-18T02:21:27.611Z,927.3
2017-06-18T02:21:47.632Z,927.27
2017-06-18T02:22:07.649Z,927.29
2017-06-18T02:22:27.673Z,927.28
2017-06-18T02:22:47.702Z,927.31
2017-06-18T02:23:07.740Z,927.26
2017-06-18T02:23:27.757Z,927.29
2017-06-18T02:23:47.216Z,927.26
2017-06-18T02:24:07.225Z,927.3
2017-06-18T02:24:27.235Z,927.29
2017-06-18T02:24:47.243Z,927.28
2017-06-18T02:25:07.266Z,927.28
2017-06-18T02:25:26.148Z,927.29
2017-06-18T02:25:46.168Z,927.29
2017-06-18T02:26:05.620Z,927.25
2017-06-18T02:26:25.085Z,927.27
2017-06-18T02:26:45.089Z,927.28
2017-06-18T02:27:04.566Z,927.29
2017-06-18T02:27:24.564Z,927.3
2017-06-18T02:27:44.588Z,927.28
2017-06-18T02:28:04.591Z,927.31
2017-06-18T02:28:23.463Z,927.31
2017-06-18T02:28:43.492Z,927.32
2017-06-18T02:29:03.511Z,927.32
2017-06-18T02:29:22.957Z,927.32
2017-06-18T02:29:42.969Z,927.32
2017-06-18T02:30:02.994Z,927.28
2017-06-18T02:30:23.024Z,927.32
2017-06-18T02:30:43.080Z,927.29
2017-06-18T02:31:03.114Z,927.29
2017-06-18T02:31:23.158Z,927.31
2017-06-18T02:31:43.167Z,927.29
2017-06-18T02:32:02.627Z,927.3
2017-06-18T02:32:22.076Z,927.27
2017-06-18T02:32:41.532Z,927.28
2017-06-18T02:33:00.412Z,927.31
2017-06-18T02:33:20.411Z,927.29
2017-06-18T02:33:39.872Z,927.29
2017-06-18T02:33:59.897Z,927.31
2017-06-18T02:34:19.950Z,927.31
2017-06-18T02:34:40.027Z,927.31
2017-06-18T02:35:00.070Z,927.31
2017-06-18T02:35:19.533Z,927.25
2017-06-18T02:35:39.493Z,927.28
2017-06-18T02:35:59.227Z,927.29
2017-06-18T02:36:19.265Z,927.31
2017-06-18T02:36:39.262Z,927.27
2017-06-18T02:36:59.286Z,927.3
2017-06-18T02:37:18.768Z,927.31
2017-06-18T02:37:38.779Z,927.34
2017-06-18T02:37:57.670Z,927.3
2017-06-18T02:38:17.678Z,927.29
2017-06-18T02:38:37.686Z,927.29
2017-06-18T02:38:57.124Z,927.29
2017-06-18T02:39:17.182Z,927.33
2017-06-18T02:39:37.202Z,927.31
2017-06-18T02:39:57.255Z,927.3
2017-06-18T02:40:17.298Z,927.29
2017-06-18T02:40:36.746Z,927.27
2017-06-18T02:40:56.766Z,927.23
2017-06-18T02:41:16.213Z,927.27
2017-06-18T02:41:36.239Z,927.28
2017-06-18T02:41:56.235Z,927.27
2017-06-18T02:42:16.284Z,927.27
2017-06-18T02:42:35.738Z,927.29
2017-06-18T02:42:55.203Z,927.26
2017-06-18T02:43:15.218Z,927.23
2017-06-18T02:43:34.111Z,927.26
2017-06-18T02:43:54.147Z,927.23
2017-06-18T02:44:14.158Z,927.24
2017-06-18T02:44:34.170Z,927.26
2017-06-18T02:44:54.171Z,927.22
2017-06-18T02:45:14.182Z,927.25
2017-06-18T02:45:33.616Z,927.2
2017-06-18T02:45:53.683Z,927.22
2017-06-18T02:46:13.413Z,927.19
2017-06-18T02:46:52.064Z,927.23
2017-06-18T02:47:11.816Z,927.2
2017-06-18T02:47:31.142Z,927.17
2017-06-18T02:47:50.440Z,927.19
2017-06-18T02:48:09.756Z,927.21
2017-06-18T02:48:29.045Z,927.21
2017-06-18T02:48:48.356Z,927.18
2017-06-18T02:49:07.126Z,927.18
2017-06-18T02:49:25.923Z,927.23
2017-06-18T02:49:45.217Z,927.21
2017-06-18T02:50:04.520Z,927.18
2017-06-18T02:50:23.806Z,927.22
2017-06-18T02:50:43.140Z,927.22
2017-06-18T02:51:02.447Z,927.24
2017-06-18T02:51:21.748Z,927.25
2017-06-18T02:51:41.061Z,927.21
2017-06-18T02:52:00.369Z,927.22
2017-06-18T02:52:19.699Z,927.22
2017-06-18T02:52:38.486Z,927.19
2017-06-18T02:52:57.774Z,927.22
2017-06-18T02:53:17.059Z,927.23
2017-06-18T02:53:36.373Z,927.24
2017-06-18T02:53:55.177Z,927.27
2017-06-18T02:54:14.498Z,927.25
2017-06-18T02:54:33.797Z,927.27
2017-06-18T02:54:52.609Z,927.27
2017-06-18T02:55:11.927Z,927.26
2017-06-18T02:55:30.733Z,927.24
2017-06-18T02:55:48.489Z,927.18
2017-06-18T02:56:07.803Z,927.22
2017-06-18T02:56:27.134Z,927.22
2017-06-18T02:56:46.444Z,927.23
2017-06-18T02:57:05.745Z,927.22
2017-06-18T02:57:25.041Z,927.19
2017-06-18T02:57:44.366Z,927.2
2017-06-18T02:58:03.649Z,927.2
2017-06-18T02:58:22.440Z,927.23
2017-06-18T02:58:41.760Z,927.2
2017-06-18T02:59:01.053Z,927.21
2017-06-18T02:59:19.311Z,927.2
2017-06-18T02:59:37.573Z,927.19
2017-06-18T02:59:56.875Z,927.15
2017-06-18T03:00:15.658Z,927.19
2017-06-18T03:00:33.933Z,927.17
2017-06-18T03:00:53.227Z,927.17
2017-06-18T03:01:12.538Z,927.13
2017-06-18T03:01:31.313Z,927.12
2017-06-18T03:01:50.612Z,927.15
2017-06-18T03:02:09.900Z,927.2
2017-06-18T03:02:29.201Z,927.18
2017-06-18T03:02:48.527Z,927.19
2017-06-18T03:03:07.854Z,927.22
2017-06-18T03:03:26.632Z,927.14
2017-06-18T03:03:45.922Z,927.13
2017-06-18T03:04:04.725Z,927.21
2017-06-18T03:04:23.529Z,927.15
2017-06-18T03:04:42.313Z,927.12
2017-06-18T03:05:01.108Z,927.16
2017-06-18T03:05:20.455Z,927.14
2017-06-18T03:05:39.255Z,927.17
2017-06-18T03:05:58.579Z,927.17
2017-06-18T03:06:17.377Z,927.16
2017-06-18T03:06:36.679Z,927.17
2017-06-18T03:06:55.964Z,927.15
2017-06-18T03:07:15.266Z,927.18
2017-06-18T03:07:34.589Z,927.19
2017-06-18T03:07:53.914Z,927.17
2017-06-18T03:08:13.231Z,927.18
2017-06-18T03:08:32.530Z,927.19
2017-06-18T03:08:51.823Z,927.15
2017-06-18T03:09:10.110Z,927.18
2017-06-18T03:09:29.435Z,927.17
2017-06-18T03:09:48.754Z,927.15
2017-06-18T03:10:07.014Z,927.16
2017-06-18T03:10:25.292Z,927.18
2017-06-18T03:10:44.616Z,927.12
2017-06-18T03:11:03.922Z,927.14
2017-06-18T03:11:22.729Z,927.15
2017-06-18T03:11:42.029Z,927.13
2017-06-18T03:12:00.812Z,927.12
2017-06-18T03:12:19.592Z,927.16
2017-06-18T03:12:38.917Z,927.13
2017-06-18T03:12:58.214Z,927.14
2017-06-18T03:13:16.981Z,927.16
2017-06-18T03:13:36.273Z,927.16
2017-06-18T03:13:55.576Z,927.14
2017-06-18T03:14:14.906Z,927.11
2017-06-18T03:14:34.239Z,927.11
2017-06-18T03:14:53.564Z,927.14
2017-06-18T03:15:12.352Z,927.15
2017-06-18T03:15:31.656Z,927.16
2017-06-18T03:15:50.988Z,927.13
2017-06-18T03:16:09.780Z,927.14
2017-06-18T03:16:28.041Z,927.18
2017-06-18T03:16:47.336Z,927.15
2017-06-18T03:17:06.663Z,927.15
2017-06-18T03:17:25.427Z,927.16
2017-06-18T03:17:44.721Z,927.17
2017-06-18T03:18:04.019Z,927.17
2017-06-18T03:18:22.846Z,927.19
2017-06-18T03:18:42.164Z,927.16
2017-06-18T03:19:00.442Z,927.17
2017-06-18T03:19:19.211Z,927.21
2017-06-18T03:19:38.498Z,927.22
2017-06-18T03:19:57.831Z,927.19
2017-06-18T03:20:16.613Z,927.21
2017-06-18T03:20:35.919Z,927.24
2017-06-18T03:20:55.190Z,927.23
2017-06-18T03:21:13.966Z,927.19
2017-06-18T03:21:33.271Z,927.21
2017-06-18T03:21:53.817Z,927.23
2017-06-18T03:22:12.614Z,927.21
2017-06-18T03:22:31.402Z,927.23
2017-06-18T03:22:50.690Z,927.23
2017-06-18T03:23:10.007Z,927.18
2017-06-18T03:23:28.810Z,927.19
2017-06-18T03:23:47.618Z,927.19
2017-06-18T03:24:06.934Z,927.25
2017-06-18T03:24:25.727Z,927.2
2017-06-18T03:24:45.045Z,927.25
2017-06-18T03:25:03.832Z,927.23
2017-06-18T03:25:22.620Z,927.24
2017-06-18T03:25:41.915Z,927.2
2017-06-18T03:26:01.241Z,927.17
2017-06-18T03:26:20.055Z,927.21
2017-06-18T03:26:39.351Z,927.19
2017-06-18T03:26:58.684Z,927.2
2017-06-18T03:27:17.464Z,927.23
2017-06-18T03:27:36.263Z,927.22
2017-06-18T03:27:55.551Z,927.22
2017-06-18T03:28:14.874Z,927.24
2017-06-18T03:28:33.648Z,927.23
2017-06-18T03:28:52.993Z,927.21
2017-06-18T03:29:11.767Z,927.21
2017-06-18T03:29:31.107Z,927.21
2017-06-18T03:29:50.429Z,927.21
2017-06-18T03:30:09.761Z,927.19
2017-06-18T03:30:28.041Z,927.23
2017-06-18T03:30:46.826Z,927.19
2017-06-18T03:31:06.823Z,927.22
2017-06-18T03:31:26.135Z,927.18
2017-06-18T03:31:45.452Z,927.21
2017-06-18T03:32:04.769Z,927.18
2017-06-18T03:32:24.046Z,927.17
2017-06-18T03:32:43.388Z,927.16
2017-06-18T03:33:02.160Z,927.16
2017-06-18T03:33:21.465Z,927.17
2017-06-18T03:33:40.747Z,927.17
2017-06-18T03:34:00.047Z,927.19
2017-06-18T03:34:19.367Z,927.19
2017-06-18T03:34:38.694Z,927.18
2017-06-18T03:34:57.985Z,927.16
2017-06-18T03:35:15.737Z,927.18
2017-06-18T03:35:35.038Z,927.14
2017-06-18T03:35:53.821Z,927.18
2017-06-18T03:36:13.122Z,927.12
2017-06-18T03:36:31.408Z,927.13
2017-06-18T03:36:50.715Z,927.08
2017-06-18T03:37:10.020Z,927.11
2017-06-18T03:37:27.771Z,927.11
2017-06-18T03:37:47.066Z,927.13
2017-06-18T03:38:06.369Z,927.16
2017-06-18T03:38:25.150Z,927.14
2017-06-18T03:38:44.475Z,927.16
2017-06-18T03:39:03.789Z,927.15
2017-06-18T03:39:23.108Z,927.14
2017-06-18T03:39:42.430Z,927.15
2017-06-18T03:40:01.257Z,927.14
2017-06-18T03:40:20.042Z,927.15
2017-06-18T03:40:38.818Z,927.16
2017-06-18T03:40:58.135Z,927.16
2017-06-18T03:41:17.421Z,927.16
2017-06-18T03:41:36.222Z,927.14
2017-06-18T03:41:55.583Z,927.14
2017-06-18T03:42:14.939Z,927.14
2017-06-18T03:42:34.241Z,927.13
2017-06-18T03:42:53.535Z,927.15
2017-06-18T03:43:12.864Z,927.16
2017-06-18T03:43:31.654Z,927.13
2017-06-18T03:43:50.936Z,927.12
2017-06-18T03:44:10.229Z,927.15
2017-06-18T03:44:29.515Z,927.13
2017-06-18T03:44:47.785Z,927.12
2017-06-18T03:45:07.114Z,927.1
2017-06-18T03:45:25.401Z,927.11
2017-06-18T03:45:44.715Z,927.11
2017-06-18T03:46:04.059Z,927.13
2017-06-18T03:46:22.339Z,927.13
2017-06-18T03:46:41.809Z,927.16
2017-06-18T03:47:01.131Z,927.13
2017-06-18T03:47:20.435Z,927.13
2017-06-18T03:47:39.719Z,927.1
2017-06-18T03:47:58.491Z,927.1
2017-06-18T03:48:17.269Z,927.1
2017-06-18T03:48:36.594Z,927.15
2017-06-18T03:48:55.904Z,927.11
2017-06-18T03:49:15.180Z,927.15
2017-06-18T03:49:34.461Z,927.18
2017-06-18T03:49:53.226Z,927.21
2017-06-18T03:50:12.030Z,927.16
2017-06-18T03:50:30.807Z,927.17
2017-06-18T03:50:50.106Z,927.15
2017-06-18T03:51:08.897Z,927.2
2017-06-18T03:51:28.210Z,927.19
2017-06-18T03:51:47.528Z,927.23
2017-06-18T03:52:06.845Z,927.23
2017-06-18T03:52:25.125Z,927.21
2017-06-18T03:52:44.432Z,927.22
2017-06-18T03:53:03.226Z,927.19
2017-06-18T03:53:22.530Z,927.23
2017-06-18T03:53:41.838Z,927.17
2017-06-18T03:54:01.118Z,927.17
2017-06-18T03:54:20.435Z,927.16
2017-06-18T03:54:39.785Z,927.18
2017-06-18T03:54:59.079Z,927.17
2017-06-18T03:55:18.467Z,927.17
2017-06-18T03:55:37.746Z,927.22
2017-06-18T03:55:56.524Z,927.19
2017-06-18T03:56:15.328Z,927.18
2017-06-18T03:56:34.653Z,927.19
2017-06-18T03:56:53.952Z,927.17
2017-06-18T03:57:13.239Z,927.21
2017-06-18T03:57:32.040Z,927.2
2017-06-18T03:57:50.849Z,927.19
2017-06-18T03:58:10.135Z,927.18
2017-06-18T03:58:28.919Z,927.17
2017-06-18T03:58:47.710Z,927.21
2017-06-18T03:59:06.502Z,927.21
2017-06-18T03:59:25.787Z,927.22
2017-06-18T03:59:44.591Z,927.22
2017-06-18T04:00:03.370Z,927.19
2017-06-18T04:00:22.132Z,927.2
2017-06-18T04:00:41.445Z,927.2
2017-06-18T04:01:00.743Z,927.18
2017-06-18T04:01:20.056Z,927.2
2017-06-18T04:01:38.849Z,927.2
2017-06-18T04:01:58.183Z,927.22